Adamsville, Pennsylvania
Current Conditions -  °F | °C
As of 6:53 AM on Thursday 29 Jan 2015 (Local Time) from KGKJ Reporting Station
Overcast Overcast  
Wind Chill: -10°   Ceiling: 7000
Heat Index: -6°   Visibility: 10mi
Dew Point: -14°   Wind: 7mph
Humidity: 53%   Direction: NA
Pressure: 29.99"   Gusts: NA
Location:  41.51°N, 80.37°W
Report Text: KGKJ 291153Z AUTO VRB06KT 10SM OVC070 M06/M14 A2999 RMK AO2 PRESFR SLP174 T10561139 11056 21072 56045 TSNO
Loading
Personal Weather Stations






























Interactive Weather Map New forecast layout! Learn more

10-Day Weather Forecast

Advertisements
Track Severe Weather on mobile